Archival Weather

Heathrow

London, United Kingdom (EGLL)

Report from: Tuesday, June 18, 2024 7:20 AM BST
Current time: Monday, July 22, 2024 11:58 AM BST

Current weather – Weather history – Daily summaries
Weather forecast

Temperature14.0°C (57.2°F)
Dew point9.0°C (48.2°F)
Winds 5 kts (2.6 m/s, 5.8 mph) Vrb
Winds variableWinds variable from North-Northwest (340°) to East-Northeast (60°)
Visibility6.2 mi. (10 km)
Clouds Sky clear
Altimeter29.94 in.Hg (1014 mB)
Relative humidity72 %
Density altitude20 ft. (6 m)
Remarks Fully automated report
Corrected report
No clouds detected
No significant changes expected in the next two hours
Flight conditions Visual Meteorological Conditions
Raw dataCOR EGLL 180620Z AUTO 03005KT 340V060 9999 NCD 14/09 Q1014 NOSIG
An error has occurred. This application may no longer respond until reloaded. Reload 🗙